TimeAST,TemperatureF,Dew PointF,Humidity,Sea Level PressureIn,VisibilityMPH,Wind Direction,Wind SpeedMPH,Gust SpeedMPH,PrecipitationIn,Events,Conditions,WindDirDegrees,DateUTC
12:00 AM,95.0,64.4,36,29.42,4.3,SSW,8.1,-,N/A,,Unknown,210,2013-06-28 21:00:00
12:30 AM,93.2,64.4,38,29.42,4.3,SSW,9.2,-,N/A,,Unknown,210,2013-06-28 21:30:00
1:00 AM,93.2,62.6,36,29.42,4.3,SSW,8.1,-,N/A,,Unknown,210,2013-06-28 22:00:00
1:30 AM,93.2,60.8,34,29.39,4.3,SW,10.4,-,N/A,,Unknown,220,2013-06-28 22:30:00
2:00 AM,93.2,59.0,32,29.39,4.3,SSW,11.5,-,N/A,,Unknown,210,2013-06-28 23:00:00
3:00 AM,92,52,17,29.40,4,SW,9.2,,,,Widespread Dust,220,2013-06-29 00:00:00
3:00 AM,91.4,51.8,26,29.39,4.3,SW,9.2,-,N/A,,Unknown,220,2013-06-29 00:00:00
3:30 AM,93.2,48.2,21,29.39,4.3,SW,10.4,-,N/A,,Unknown,220,2013-06-29 00:30:00
4:00 AM,93.2,48.2,21,29.39,3.7,WSW,5.8,-,N/A,,Unknown,240,2013-06-29 01:00:00
5:00 AM,95.0,46.4,19,29.42,2.8,WSW,5.8,-,N/A,,Unknown,250,2013-06-29 02:00:00
6:00 AM,96.8,51.8,22,29.42,2.8,West,5.8,-,N/A,,Unknown,270,2013-06-29 03:00:00
7:00 AM,98.6,60.8,29,29.44,2.8,NW,6.9,-,N/A,,Unknown,310,2013-06-29 04:00:00
8:00 AM,100.4,64.4,31,29.44,3.1,NW,4.6,-,N/A,,Unknown,310,2013-06-29 05:00:00
8:30 AM,102.2,64.4,29,29.44,3.1,NW,6.9,-,N/A,,Unknown,310,2013-06-29 05:30:00
9:00 AM,101,55,13,29.45,4,North,8.1,,,,Widespread Dust,0,2013-06-29 06:00:00
9:00 AM,102.2,55.4,21,29.44,3.7,North,8.1,-,N/A,,Unknown,360,2013-06-29 06:00:00
9:30 AM,104.0,53.6,19,29.44,3.7,NNW,5.8,-,N/A,,Unknown,340,2013-06-29 06:30:00
10:00 AM,104.0,48.2,15,29.44,4.3,North,8.1,-,N/A,,Unknown,10,2013-06-29 07:00:00
10:30 AM,104.0,46.4,14,29.44,5.0,North,8.1,-,N/A,,Unknown,350,2013-06-29 07:30:00
11:00 AM,104.0,44.6,13,29.44,5.6,North,9.2,-,N/A,,Unknown,10,2013-06-29 08:00:00
11:30 AM,105.8,42.8,12,29.44,5.6,North,11.5,-,N/A,,Unknown,10,2013-06-29 08:30:00
12:00 PM,104.0,48.2,15,29.44,5.6,NE,10.4,-,N/A,,Unknown,40,2013-06-29 09:00:00
12:30 PM,104.0,57.2,21,29.44,5.6,NE,10.4,-,N/A,,Unknown,50,2013-06-29 09:30:00
1:00 PM,104.0,57.2,21,29.44,5.0,NE,10.4,-,N/A,,Unknown,50,2013-06-29 10:00:00
1:30 PM,102.2,59.0,24,29.42,5.0,ENE,10.4,-,N/A,,Unknown,60,2013-06-29 10:30:00
2:00 PM,102.2,64.4,29,29.42,5.0,NE,10.4,-,N/A,,Unknown,40,2013-06-29 11:00:00
3:00 PM,100,65,23,29.43,5,ENE,8.1,,,,Widespread Dust,70,2013-06-29 12:00:00
3:00 PM,100.4,66.2,33,29.42,5.0,ENE,8.1,-,N/A,,Unknown,70,2013-06-29 12:00:00
4:00 PM,100.4,64.4,31,29.42,5.0,NE,8.1,-,N/A,,Unknown,50,2013-06-29 13:00:00
5:00 PM,96.8,71.6,44,29.42,4.3,East,8.1,-,N/A,,Unknown,90,2013-06-29 14:00:00
5:30 PM,95.0,73.4,49,29.42,4.3,East,8.1,-,N/A,,Unknown,100,2013-06-29 14:30:00
6:00 PM,93.2,75.2,56,29.42,4.3,East,6.9,-,N/A,,Unknown,90,2013-06-29 15:00:00
7:00 PM,91.4,78.8,66,29.42,5.0,East,3.5,-,N/A,,Unknown,100,2013-06-29 16:00:00
8:00 PM,91.4,75.2,59,29.44,5.0,ESE,3.5,-,N/A,,Unknown,120,2013-06-29 17:00:00
9:00 PM,92,74,47,29.46,5,SE,4.6,,,,Widespread Dust,140,2013-06-29 18:00:00
9:00 PM,91.4,73.4,55,29.44,5.0,SE,4.6,-,N/A,,Unknown,140,2013-06-29 18:00:00
9:30 PM,91.4,75.2,59,29.44,5.0,SE,5.8,-,N/A,,Unknown,140,2013-06-29 18:30:00
10:00 PM,93.2,73.4,52,29.44,5.0,South,4.6,-,N/A,,Unknown,190,2013-06-29 19:00:00
10:30 PM,91.4,75.2,59,29.44,5.0,South,5.8,-,N/A,,Unknown,190,2013-06-29 19:30:00
11:00 PM,91.4,77.0,63,29.44,5.0,South,3.5,-,N/A,,Unknown,180,2013-06-29 20:00:00
11:30 PM,91.4,77.0,63,29.42,5.0,SSW,4.6,-,N/A,,Unknown,210,2013-06-29 20:30:00